Main page
Satellite images 15-day forecastsClimateMarine weather Cyclones Lightning AirportsFAQ Newsletter About
Weather : Europe Africa North America South America Asia Australia-Oceania Others
Languages Contact

London-Luton, England

latitude: 51-52N, longitude: 000-22W, elevation: 160 m


METAR: EGGW 241820Z 25010KT 9999 SCT016 SCT022 14/14 Q1013 RERA REDZ
TAF: EGGW 241808Z 2418/2518 24007KT 9999 SCT020 TEMPO 2418/2420 4000 +RA BKN009 PROB30 2500/2508 4000 BR

Time: 19:47 (18:47 UTC)

Current weather observation

The report was made 27 minutes ago, at 18:20 UTC
Wind 10 kt from the West/Southwest
Temperature 14°C
Humidity 100%
Pressure 1013 hPa
Visibility 10 km or more
Scattered clouds at a height of 1600 ft
Scattered clouds at a height of 2200 ft

Change units

Forecast

The report was made 39 minutes ago, at 18:08 UTC
Forecast valid from 24 at 18 UTC to 25 at 18 UTC
Wind 7 kt from the West/Southwest
Visibility 10 km or more
Scattered clouds at a height of 2000 ft
Temporary
from 24 at 18 UTC to 24 at 20 UTC
Visibility: 4000 m
Broken clouds at a height of 900 ft
heavy rain
Probability 30%
from 25 at 00 UTC to 25 at 08 UTC
Visibility: 4000 m
mist
The information on this site is subject to a disclaimer
Weather : Europe Africa North America South America Asia Australia-Oceania Others
Satellite images 15-day forecastsClimateMarine weather Cyclones Lightning AirportsFAQ Languages Contact Newsletter About